sensor_id;sensor_type;location;lat;lon;timestamp;P1;durP1;ratioP1;P2;durP2;ratioP2
9536;SDS011;4807;48.024;11.726;2023-03-12T00:02:33;3.03;;;1.73;;
9536;SDS011;4807;48.024;11.726;2023-03-12T00:05:43;5.13;;;2.47;;
9536;SDS011;4807;48.024;11.726;2023-03-12T00:08:51;2.97;;;1.63;;
9536;SDS011;4807;48.024;11.726;2023-03-12T00:12:01;3.60;;;1.93;;
9536;SDS011;4807;48.024;11.726;2023-03-12T00:15:11;3.53;;;1.50;;
9536;SDS011;4807;48.024;11.726;2023-03-12T00:18:19;5.53;;;2.10;;
9536;SDS011;4807;48.024;11.726;2023-03-12T00:21:29;4.47;;;1.50;;
9536;SDS011;4807;48.024;11.726;2023-03-12T00:24:37;2.53;;;1.80;;
9536;SDS011;4807;48.024;11.726;2023-03-12T00:27:45;3.30;;;1.73;;
9536;SDS011;4807;48.024;11.726;2023-03-12T00:30:54;1.90;;;1.40;;
9536;SDS011;4807;48.024;11.726;2023-03-12T00:34:03;2.10;;;1.50;;
9536;SDS011;4807;48.024;11.726;2023-03-12T00:37:13;4.50;;;2.07;;
9536;SDS011;4807;48.024;11.726;2023-03-12T00:40:21;2.27;;;1.80;;
9536;SDS011;4807;48.024;11.726;2023-03-12T00:43:29;4.33;;;1.80;;
9536;SDS011;4807;48.024;11.726;2023-03-12T00:46:38;3.33;;;1.77;;
9536;SDS011;4807;48.024;11.726;2023-03-12T00:49:46;2.87;;;1.80;;
9536;SDS011;4807;48.024;11.726;2023-03-12T00:52:56;4.03;;;1.87;;
9536;SDS011;4807;48.024;11.726;2023-03-12T00:56:05;2.10;;;1.90;;
9536;SDS011;4807;48.024;11.726;2023-03-12T00:59:15;4.63;;;1.90;;
9536;SDS011;4807;48.024;11.726;2023-03-12T01:02:23;3.47;;;1.87;;
9536;SDS011;4807;48.024;11.726;2023-03-12T01:05:32;2.00;;;1.53;;
9536;SDS011;4807;48.024;11.726;2023-03-12T01:08:45;3.20;;;1.73;;
9536;SDS011;4807;48.024;11.726;2023-03-12T01:11:53;3.23;;;2.10;;
9536;SDS011;4807;48.024;11.726;2023-03-12T01:15:02;2.90;;;2.07;;
9536;SDS011;4807;48.024;11.726;2023-03-12T01:18:11;3.10;;;1.83;;
9536;SDS011;4807;48.024;11.726;2023-03-12T01:21:19;2.20;;;1.83;;
9536;SDS011;4807;48.024;11.726;2023-03-12T01:24:29;2.97;;;1.80;;
9536;SDS011;4807;48.024;11.726;2023-03-12T01:27:37;3.30;;;1.93;;
9536;SDS011;4807;48.024;11.726;2023-03-12T01:30:46;1.67;;;1.27;;
9536;SDS011;4807;48.024;11.726;2023-03-12T01:33:55;3.27;;;1.40;;
9536;SDS011;4807;48.024;11.726;2023-03-12T01:37:05;2.13;;;1.43;;
9536;SDS011;4807;48.024;11.726;2023-03-12T01:40:16;1.50;;;1.17;;
9536;SDS011;4807;48.024;11.726;2023-03-12T01:43:31;3.53;;;1.57;;
9536;SDS011;4807;48.024;11.726;2023-03-12T01:46:43;2.53;;;1.60;;
9536;SDS011;4807;48.024;11.726;2023-03-12T01:49:55;1.93;;;1.70;;
9536;SDS011;4807;48.024;11.726;2023-03-12T01:53:05;4.87;;;2.13;;
9536;SDS011;4807;48.024;11.726;2023-03-12T01:56:15;3.27;;;1.90;;
9536;SDS011;4807;48.024;11.726;2023-03-12T01:59:28;3.37;;;1.70;;
9536;SDS011;4807;48.024;11.726;2023-03-12T02:02:43;3.40;;;1.97;;
9536;SDS011;4807;48.024;11.726;2023-03-12T02:05:59;2.90;;;1.80;;
9536;SDS011;4807;48.024;11.726;2023-03-12T02:09:15;2.73;;;1.97;;
9536;SDS011;4807;48.024;11.726;2023-03-12T02:12:29;3.57;;;1.77;;
9536;SDS011;4807;48.024;11.726;2023-03-12T02:15:37;2.77;;;1.80;;
9536;SDS011;4807;48.024;11.726;2023-03-12T02:18:46;2.07;;;1.57;;
9536;SDS011;4807;48.024;11.726;2023-03-12T02:21:59;2.33;;;1.70;;
9536;SDS011;4807;48.024;11.726;2023-03-12T02:25:21;1.73;;;1.60;;
9536;SDS011;4807;48.024;11.726;2023-03-12T02:28:37;2.27;;;2.07;;
9536;SDS011;4807;48.024;11.726;2023-03-12T02:31:51;1.93;;;1.43;;
9536;SDS011;4807;48.024;11.726;2023-03-12T02:35:03;1.47;;;1.30;;
9536;SDS011;4807;48.024;11.726;2023-03-12T02:38:33;2.07;;;1.83;;
9536;SDS011;4807;48.024;11.726;2023-03-12T02:47:01;4.20;;;1.67;;
9536;SDS011;4807;48.024;11.726;2023-03-12T02:50:10;1.70;;;1.30;;
9536;SDS011;4807;48.024;11.726;2023-03-12T02:53:19;2.80;;;1.50;;
9536;SDS011;4807;48.024;11.726;2023-03-12T02:56:27;2.00;;;1.70;;
9536;SDS011;4807;48.024;11.726;2023-03-12T02:59:36;2.50;;;1.70;;
9536;SDS011;4807;48.024;11.726;2023-03-12T03:02:48;3.37;;;2.27;;
9536;SDS011;4807;48.024;11.726;2023-03-12T03:05:56;2.47;;;2.00;;
9536;SDS011;4807;48.024;11.726;2023-03-12T03:09:06;5.17;;;2.20;;
9536;SDS011;4807;48.024;11.726;2023-03-12T03:12:14;3.30;;;2.87;;
9536;SDS011;4807;48.024;11.726;2023-03-12T03:15:23;4.83;;;2.63;;
9536;SDS011;4807;48.024;11.726;2023-03-12T03:18:34;4.83;;;3.37;;
9536;SDS011;4807;48.024;11.726;2023-03-12T03:21:42;4.53;;;3.20;;
9536;SDS011;4807;48.024;11.726;2023-03-12T03:24:51;5.57;;;3.40;;
9536;SDS011;4807;48.024;11.726;2023-03-12T03:28:00;3.63;;;2.90;;
9536;SDS011;4807;48.024;11.726;2023-03-12T03:31:09;4.43;;;3.23;;
9536;SDS011;4807;48.024;11.726;2023-03-12T03:34:20;5.40;;;3.17;;
9536;SDS011;4807;48.024;11.726;2023-03-12T03:37:28;5.10;;;3.47;;
9536;SDS011;4807;48.024;11.726;2023-03-12T03:40:37;5.40;;;3.40;;
9536;SDS011;4807;48.024;11.726;2023-03-12T03:43:45;4.17;;;3.63;;
9536;SDS011;4807;48.024;11.726;2023-03-12T03:46:57;5.53;;;4.43;;
9536;SDS011;4807;48.024;11.726;2023-03-12T03:50:07;4.33;;;3.57;;
9536;SDS011;4807;48.024;11.726;2023-03-12T03:53:17;5.57;;;3.70;;
9536;SDS011;4807;48.024;11.726;2023-03-12T03:56:27;5.23;;;4.10;;
9536;SDS011;4807;48.024;11.726;2023-03-12T03:59:37;6.50;;;4.33;;
9536;SDS011;4807;48.024;11.726;2023-03-12T04:02:46;6.50;;;4.00;;
9536;SDS011;4807;48.024;11.726;2023-03-12T04:05:57;4.97;;;3.90;;
9536;SDS011;4807;48.024;11.726;2023-03-12T04:09:08;5.93;;;3.80;;
9536;SDS011;4807;48.024;11.726;2023-03-12T04:12:18;5.53;;;4.50;;
9536;SDS011;4807;48.024;11.726;2023-03-12T04:15:29;5.93;;;4.10;;
9536;SDS011;4807;48.024;11.726;2023-03-12T04:18:38;7.03;;;4.30;;
9536;SDS011;4807;48.024;11.726;2023-03-12T04:21:49;4.33;;;3.87;;
9536;SDS011;4807;48.024;11.726;2023-03-12T04:24:57;5.27;;;3.80;;
9536;SDS011;4807;48.024;11.726;2023-03-12T04:28:07;5.50;;;3.73;;
9536;SDS011;4807;48.024;11.726;2023-03-12T04:31:17;5.70;;;4.73;;
9536;SDS011;4807;48.024;11.726;2023-03-12T04:34:29;6.47;;;5.33;;
9536;SDS011;4807;48.024;11.726;2023-03-12T04:37:39;6.53;;;5.83;;
9536;SDS011;4807;48.024;11.726;2023-03-12T04:40:55;7.40;;;6.60;;
9536;SDS011;4807;48.024;11.726;2023-03-12T04:44:05;6.73;;;6.03;;
9536;SDS011;4807;48.024;11.726;2023-03-12T04:47:18;9.03;;;8.13;;
9536;SDS011;4807;48.024;11.726;2023-03-12T04:50:26;9.03;;;7.73;;
9536;SDS011;4807;48.024;11.726;2023-03-12T04:53:37;9.23;;;7.67;;
9536;SDS011;4807;48.024;11.726;2023-03-12T04:56:49;6.67;;;6.07;;
9536;SDS011;4807;48.024;11.726;2023-03-12T04:59:59;6.83;;;6.13;;
9536;SDS011;4807;48.024;11.726;2023-03-12T05:03:09;6.77;;;6.03;;
9536;SDS011;4807;48.024;11.726;2023-03-12T05:06:29;9.23;;;8.20;;
9536;SDS011;4807;48.024;11.726;2023-03-12T05:09:40;8.67;;;5.83;;
9536;SDS011;4807;48.024;11.726;2023-03-12T05:12:50;7.80;;;5.50;;
9536;SDS011;4807;48.024;11.726;2023-03-12T05:15:59;4.00;;;3.70;;
9536;SDS011;4807;48.024;11.726;2023-03-12T05:19:09;6.97;;;4.40;;
9536;SDS011;4807;48.024;11.726;2023-03-12T05:22:19;6.17;;;4.93;;
9536;SDS011;4807;48.024;11.726;2023-03-12T05:25:31;6.60;;;6.00;;
9536;SDS011;4807;48.024;11.726;2023-03-12T05:28:40;8.87;;;7.90;;
9536;SDS011;4807;48.024;11.726;2023-03-12T05:31:49;9.27;;;8.43;;
9536;SDS011;4807;48.024;11.726;2023-03-12T05:35:00;9.67;;;8.77;;
9536;SDS011;4807;48.024;11.726;2023-03-12T05:38:09;8.33;;;7.60;;
9536;SDS011;4807;48.024;11.726;2023-03-12T05:41:20;6.47;;;5.23;;
9536;SDS011;4807;48.024;11.726;2023-03-12T05:44:37;6.73;;;5.13;;
9536;SDS011;4807;48.024;11.726;2023-03-12T05:47:48;4.47;;;4.07;;
9536;SDS011;4807;48.024;11.726;2023-03-12T05:50:57;5.73;;;4.90;;
9536;SDS011;4807;48.024;11.726;2023-03-12T05:54:06;4.97;;;4.47;;
9536;SDS011;4807;48.024;11.726;2023-03-12T05:57:19;5.37;;;4.83;;
9536;SDS011;4807;48.024;11.726;2023-03-12T06:00:27;5.20;;;4.70;;
9536;SDS011;4807;48.024;11.726;2023-03-12T06:03:38;6.07;;;4.33;;
9536;SDS011;4807;48.024;11.726;2023-03-12T06:06:48;6.27;;;5.63;;
9536;SDS011;4807;48.024;11.726;2023-03-12T06:09:57;6.83;;;5.07;;
9536;SDS011;4807;48.024;11.726;2023-03-12T06:13:08;3.57;;;3.27;;
9536;SDS011;4807;48.024;11.726;2023-03-12T06:16:17;5.17;;;3.30;;
9536;SDS011;4807;48.024;11.726;2023-03-12T06:19:28;5.30;;;3.20;;
9536;SDS011;4807;48.024;11.726;2023-03-12T06:22:37;5.40;;;2.87;;
9536;SDS011;4807;48.024;11.726;2023-03-12T06:25:45;6.00;;;2.80;;
9536;SDS011;4807;48.024;11.726;2023-03-12T06:28:55;3.53;;;1.97;;
9536;SDS011;4807;48.024;11.726;2023-03-12T06:32:03;4.13;;;2.43;;
9536;SDS011;4807;48.024;11.726;2023-03-12T06:35:12;4.67;;;2.20;;
9536;SDS011;4807;48.024;11.726;2023-03-12T06:38:21;1.70;;;1.60;;
9536;SDS011;4807;48.024;11.726;2023-03-12T06:41:30;3.33;;;1.97;;
9536;SDS011;4807;48.024;11.726;2023-03-12T06:44:40;2.67;;;1.73;;
9536;SDS011;4807;48.024;11.726;2023-03-12T06:47:52;2.10;;;1.40;;
9536;SDS011;4807;48.024;11.726;2023-03-12T06:51:01;2.70;;;1.43;;
9536;SDS011;4807;48.024;11.726;2023-03-12T06:54:10;2.20;;;1.40;;
9536;SDS011;4807;48.024;11.726;2023-03-12T06:57:18;1.67;;;1.40;;
9536;SDS011;4807;48.024;11.726;2023-03-12T07:00:28;5.13;;;1.47;;
9536;SDS011;4807;48.024;11.726;2023-03-12T07:03:36;1.60;;;1.50;;
9536;SDS011;4807;48.024;11.726;2023-03-12T07:06:44;1.80;;;1.47;;
9536;SDS011;4807;48.024;11.726;2023-03-12T07:09:56;2.13;;;1.40;;
9536;SDS011;4807;48.024;11.726;2023-03-12T07:13:04;2.17;;;1.53;;
9536;SDS011;4807;48.024;11.726;2023-03-12T07:16:14;9.77;;;5.50;;
9536;SDS011;4807;48.024;11.726;2023-03-12T07:19:22;10.90;;;6.43;;
9536;SDS011;4807;48.024;11.726;2023-03-12T07:22:31;3.20;;;2.90;;
9536;SDS011;4807;48.024;11.726;2023-03-12T07:25:40;4.87;;;2.63;;
9536;SDS011;4807;48.024;11.726;2023-03-12T07:28:49;7.47;;;5.07;;
9536;SDS011;4807;48.024;11.726;2023-03-12T07:31:59;4.27;;;3.37;;
9536;SDS011;4807;48.024;11.726;2023-03-12T07:35:08;6.30;;;4.20;;
9536;SDS011;4807;48.024;11.726;2023-03-12T07:38:16;4.57;;;3.23;;
9536;SDS011;4807;48.024;11.726;2023-03-12T07:41:25;5.83;;;3.60;;
9536;SDS011;4807;48.024;11.726;2023-03-12T07:44:33;11.47;;;4.30;;
9536;SDS011;4807;48.024;11.726;2023-03-12T07:47:43;23.93;;;11.77;;
9536;SDS011;4807;48.024;11.726;2023-03-12T07:50:52;2.40;;;1.73;;
9536;SDS011;4807;48.024;11.726;2023-03-12T07:54:01;2.37;;;2.10;;
9536;SDS011;4807;48.024;11.726;2023-03-12T07:57:09;1.40;;;1.10;;
9536;SDS011;4807;48.024;11.726;2023-03-12T08:00:18;1.57;;;1.10;;
9536;SDS011;4807;48.024;11.726;2023-03-12T08:03:28;1.73;;;1.60;;
9536;SDS011;4807;48.024;11.726;2023-03-12T08:06:39;2.10;;;1.87;;
9536;SDS011;4807;48.024;11.726;2023-03-12T08:09:48;1.93;;;1.33;;
9536;SDS011;4807;48.024;11.726;2023-03-12T08:12:56;1.97;;;1.60;;
9536;SDS011;4807;48.024;11.726;2023-03-12T08:16:04;1.33;;;1.03;;
9536;SDS011;4807;48.024;11.726;2023-03-12T08:19:16;2.70;;;1.47;;
9536;SDS011;4807;48.024;11.726;2023-03-12T08:22:25;1.57;;;1.47;;
9536;SDS011;4807;48.024;11.726;2023-03-12T08:25:33;2.83;;;1.40;;
9536;SDS011;4807;48.024;11.726;2023-03-12T08:28:42;2.93;;;1.53;;
9536;SDS011;4807;48.024;11.726;2023-03-12T08:31:51;1.60;;;1.50;;
9536;SDS011;4807;48.024;11.726;2023-03-12T08:35:11;1.83;;;1.47;;
9536;SDS011;4807;48.024;11.726;2023-03-12T08:38:20;2.77;;;1.23;;
9536;SDS011;4807;48.024;11.726;2023-03-12T08:41:29;1.77;;;1.30;;
9536;SDS011;4807;48.024;11.726;2023-03-12T08:44:37;1.70;;;1.40;;
9536;SDS011;4807;48.024;11.726;2023-03-12T08:47:45;2.37;;;1.53;;
9536;SDS011;4807;48.024;11.726;2023-03-12T08:50:56;2.10;;;1.53;;
9536;SDS011;4807;48.024;11.726;2023-03-12T08:54:06;1.13;;;1.03;;
9536;SDS011;4807;48.024;11.726;2023-03-12T08:57:14;1.40;;;1.00;;
9536;SDS011;4807;48.024;11.726;2023-03-12T09:00:23;1.70;;;1.57;;
9536;SDS011;4807;48.024;11.726;2023-03-12T09:03:35;1.50;;;1.27;;
9536;SDS011;4807;48.024;11.726;2023-03-12T09:06:52;2.50;;;1.70;;
9536;SDS011;4807;48.024;11.726;2023-03-12T09:10:01;4.80;;;2.70;;
9536;SDS011;4807;48.024;11.726;2023-03-12T09:13:13;2.70;;;2.07;;
9536;SDS011;4807;48.024;11.726;2023-03-12T09:16:23;1.43;;;1.33;;
9536;SDS011;4807;48.024;11.726;2023-03-12T09:19:31;2.00;;;1.40;;
9536;SDS011;4807;48.024;11.726;2023-03-12T09:22:41;1.43;;;1.33;;
9536;SDS011;4807;48.024;11.726;2023-03-12T09:25:50;2.50;;;1.80;;
9536;SDS011;4807;48.024;11.726;2023-03-12T09:28:59;2.07;;;1.60;;
9536;SDS011;4807;48.024;11.726;2023-03-12T09:32:07;2.80;;;1.70;;
9536;SDS011;4807;48.024;11.726;2023-03-12T09:35:16;1.37;;;1.27;;
9536;SDS011;4807;48.024;11.726;2023-03-12T09:38:27;2.53;;;1.37;;
9536;SDS011;4807;48.024;11.726;2023-03-12T09:41:42;2.43;;;1.33;;
9536;SDS011;4807;48.024;11.726;2023-03-12T09:44:54;1.47;;;1.37;;
9536;SDS011;4807;48.024;11.726;2023-03-12T09:48:12;1.83;;;1.60;;
9536;SDS011;4807;48.024;11.726;2023-03-12T09:51:30;2.13;;;1.73;;
9536;SDS011;4807;48.024;11.726;2023-03-12T09:54:47;1.50;;;1.40;;
9536;SDS011;4807;48.024;11.726;2023-03-12T09:58:09;1.47;;;1.27;;
9536;SDS011;4807;48.024;11.726;2023-03-12T10:01:26;1.67;;;1.40;;
9536;SDS011;4807;48.024;11.726;2023-03-12T10:04:45;8.70;;;4.20;;
9536;SDS011;4807;48.024;11.726;2023-03-12T10:08:07;1.80;;;1.70;;
9536;SDS011;4807;48.024;11.726;2023-03-12T10:11:36;1.27;;;1.13;;
9536;SDS011;4807;48.024;11.726;2023-03-12T10:15:00;2.03;;;1.63;;
9536;SDS011;4807;48.024;11.726;2023-03-12T10:18:34;1.70;;;1.20;;
9536;SDS011;4807;48.024;11.726;2023-03-12T10:22:06;1.20;;;1.10;;
9536;SDS011;4807;48.024;11.726;2023-03-12T10:25:30;1.70;;;1.40;;
9536;SDS011;4807;48.024;11.726;2023-03-12T10:28:50;1.10;;;1.00;;
9536;SDS011;4807;48.024;11.726;2023-03-12T10:32:06;0.80;;;0.70;;
9536;SDS011;4807;48.024;11.726;2023-03-12T10:35:25;2.13;;;1.80;;
9536;SDS011;4807;48.024;11.726;2023-03-12T10:38:37;1.53;;;1.43;;
9536;SDS011;4807;48.024;11.726;2023-03-12T10:41:47;3.60;;;3.30;;
9536;SDS011;4807;48.024;11.726;2023-03-12T10:45:05;1.50;;;1.40;;
9536;SDS011;4807;48.024;11.726;2023-03-12T10:48:32;1.50;;;1.40;;
9536;SDS011;4807;48.024;11.726;2023-03-12T10:51:52;1.53;;;1.10;;
9536;SDS011;4807;48.024;11.726;2023-03-12T10:55:09;1.30;;;1.20;;
9536;SDS011;4807;48.024;11.726;2023-03-12T10:58:30;1.20;;;1.10;;
9536;SDS011;4807;48.024;11.726;2023-03-12T11:01:43;2.67;;;1.87;;
9536;SDS011;4807;48.024;11.726;2023-03-12T11:04:57;2.63;;;2.40;;
9536;SDS011;4807;48.024;11.726;2023-03-12T11:08:12;1.77;;;1.67;;
9536;SDS011;4807;48.024;11.726;2023-03-12T11:11:30;3.27;;;3.00;;
9536;SDS011;4807;48.024;11.726;2023-03-12T11:14:39;2.20;;;2.00;;
9536;SDS011;4807;48.024;11.726;2023-03-12T11:18:11;3.40;;;3.10;;
9536;SDS011;4807;48.024;11.726;2023-03-12T11:21:31;1.33;;;1.23;;
9536;SDS011;4807;48.024;11.726;2023-03-12T11:24:53;3.57;;;1.90;;
9536;SDS011;4807;48.024;11.726;2023-03-12T11:28:03;1.67;;;1.53;;
9536;SDS011;4807;48.024;11.726;2023-03-12T11:31:22;1.30;;;1.20;;
9536;SDS011;4807;48.024;11.726;2023-03-12T11:34:40;1.73;;;1.63;;
9536;SDS011;4807;48.024;11.726;2023-03-12T11:37:56;1.43;;;1.20;;
9536;SDS011;4807;48.024;11.726;2023-03-12T11:41:22;1.43;;;1.07;;
9536;SDS011;4807;48.024;11.726;2023-03-12T11:45:01;0.70;;;0.70;;
9536;SDS011;4807;48.024;11.726;2023-03-12T11:48:27;0.80;;;0.80;;
9536;SDS011;4807;48.024;11.726;2023-03-12T11:51:54;1.37;;;0.70;;
9536;SDS011;4807;48.024;11.726;2023-03-12T11:55:15;0.80;;;0.70;;
9536;SDS011;4807;48.024;11.726;2023-03-12T11:58:52;3.93;;;2.57;;
9536;SDS011;4807;48.024;11.726;2023-03-12T12:02:37;0.70;;;0.60;;
9536;SDS011;4807;48.024;11.726;2023-03-12T12:06:35;0.83;;;0.83;;
9536;SDS011;4807;48.024;11.726;2023-03-12T12:10:05;1.03;;;0.90;;
9536;SDS011;4807;48.024;11.726;2023-03-12T12:13:30;1.03;;;0.93;;
9536;SDS011;4807;48.024;11.726;2023-03-12T12:16:57;1.10;;;1.10;;
9536;SDS011;4807;48.024;11.726;2023-03-12T12:20:20;3.37;;;1.90;;
9536;SDS011;4807;48.024;11.726;2023-03-12T12:23:48;2.93;;;2.13;;
9536;SDS011;4807;48.024;11.726;2023-03-12T12:27:16;1.97;;;1.30;;
9536;SDS011;4807;48.024;11.726;2023-03-12T12:30:29;1.30;;;1.20;;
9536;SDS011;4807;48.024;11.726;2023-03-12T12:37:42;1.13;;;1.03;;
9536;SDS011;4807;48.024;11.726;2023-03-12T12:40:59;2.53;;;1.43;;
9536;SDS011;4807;48.024;11.726;2023-03-12T12:44:17;2.30;;;1.73;;
9536;SDS011;4807;48.024;11.726;2023-03-12T12:47:34;2.53;;;1.90;;
9536;SDS011;4807;48.024;11.726;2023-03-12T12:50:49;1.60;;;1.50;;
9536;SDS011;4807;48.024;11.726;2023-03-12T12:54:06;1.40;;;1.30;;
9536;SDS011;4807;48.024;11.726;2023-03-12T12:57:24;2.53;;;1.70;;
9536;SDS011;4807;48.024;11.726;2023-03-12T13:00:44;1.80;;;1.70;;
9536;SDS011;4807;48.024;11.726;2023-03-12T13:03:57;3.00;;;1.80;;
9536;SDS011;4807;48.024;11.726;2023-03-12T13:10:41;3.33;;;1.53;;
9536;SDS011;4807;48.024;11.726;2023-03-12T13:14:17;2.77;;;1.60;;
9536;SDS011;4807;48.024;11.726;2023-03-12T13:21:18;2.47;;;1.90;;
9536;SDS011;4807;48.024;11.726;2023-03-12T13:24:41;4.63;;;3.22;;
9536;SDS011;4807;48.024;11.726;2023-03-12T13:28:00;2.90;;;2.27;;
9536;SDS011;4807;48.024;11.726;2023-03-12T13:31:50;3.90;;;2.77;;
9536;SDS011;4807;48.024;11.726;2023-03-12T13:35:00;2.97;;;2.07;;
9536;SDS011;4807;48.024;11.726;2023-03-12T13:38:36;3.87;;;2.70;;
9536;SDS011;4807;48.024;11.726;2023-03-12T13:42:01;4.77;;;3.53;;
9536;SDS011;4807;48.024;11.726;2023-03-12T13:45:53;9.07;;;2.90;;
9536;SDS011;4807;48.024;11.726;2023-03-12T13:49:10;4.80;;;3.23;;
9536;SDS011;4807;48.024;11.726;2023-03-12T13:52:24;2.33;;;2.13;;
9536;SDS011;4807;48.024;11.726;2023-03-12T13:55:36;2.70;;;2.10;;
9536;SDS011;4807;48.024;11.726;2023-03-12T13:58:54;1.70;;;1.47;;
9536;SDS011;4807;48.024;11.726;2023-03-12T14:02:20;3.47;;;2.13;;
9536;SDS011;4807;48.024;11.726;2023-03-12T14:05:42;4.33;;;2.83;;
9536;SDS011;4807;48.024;11.726;2023-03-12T14:09:01;3.90;;;1.93;;
9536;SDS011;4807;48.024;11.726;2023-03-12T14:12:30;1.67;;;1.50;;
9536;SDS011;4807;48.024;11.726;2023-03-12T14:15:52;2.73;;;1.23;;
9536;SDS011;4807;48.024;11.726;2023-03-12T14:19:10;3.57;;;1.30;;
9536;SDS011;4807;48.024;11.726;2023-03-12T14:22:23;4.17;;;1.30;;
9536;SDS011;4807;48.024;11.726;2023-03-12T14:25:40;3.47;;;1.70;;
9536;SDS011;4807;48.024;11.726;2023-03-12T14:28:54;2.37;;;1.53;;
9536;SDS011;4807;48.024;11.726;2023-03-12T14:32:12;3.17;;;2.47;;
9536;SDS011;4807;48.024;11.726;2023-03-12T14:35:26;4.13;;;1.77;;
9536;SDS011;4807;48.024;11.726;2023-03-12T14:38:44;5.40;;;2.50;;
9536;SDS011;4807;48.024;11.726;2023-03-12T14:41:57;3.70;;;1.80;;
9536;SDS011;4807;48.024;11.726;2023-03-12T14:45:11;4.30;;;2.07;;
9536;SDS011;4807;48.024;11.726;2023-03-12T14:48:26;2.83;;;1.33;;
9536;SDS011;4807;48.024;11.726;2023-03-12T14:51:36;3.00;;;1.77;;
9536;SDS011;4807;48.024;11.726;2023-03-12T14:54:51;2.73;;;1.90;;
9536;SDS011;4807;48.024;11.726;2023-03-12T14:58:05;9.67;;;5.07;;
9536;SDS011;4807;48.024;11.726;2023-03-12T15:01:25;3.27;;;1.53;;
9536;SDS011;4807;48.024;11.726;2023-03-12T15:04:36;1.93;;;1.30;;
9536;SDS011;4807;48.024;11.726;2023-03-12T15:07:46;2.23;;;0.93;;
9536;SDS011;4807;48.024;11.726;2023-03-12T15:10:58;1.47;;;0.77;;
9536;SDS011;4807;48.024;11.726;2023-03-12T15:14:11;2.70;;;1.00;;
9536;SDS011;4807;48.024;11.726;2023-03-12T15:17:23;3.90;;;2.17;;
9536;SDS011;4807;48.024;11.726;2023-03-12T15:20:40;3.40;;;1.37;;
9536;SDS011;4807;48.024;11.726;2023-03-12T15:23:51;3.00;;;1.17;;
9536;SDS011;4807;48.024;11.726;2023-03-12T15:30:41;1.13;;;0.80;;
9536;SDS011;4807;48.024;11.726;2023-03-12T15:34:00;1.03;;;0.40;;
9536;SDS011;4807;48.024;11.726;2023-03-12T15:37:18;0.80;;;0.30;;
9536;SDS011;4807;48.024;11.726;2023-03-12T15:40:34;0.23;;;0.20;;
9536;SDS011;4807;48.024;11.726;2023-03-12T15:43:42;0.33;;;0.33;;
9536;SDS011;4807;48.024;11.726;2023-03-12T15:47:02;0.30;;;0.20;;
9536;SDS011;4807;48.024;11.726;2023-03-12T15:50:18;0.67;;;0.30;;
9536;SDS011;4807;48.024;11.726;2023-03-12T15:53:30;0.90;;;0.20;;
9536;SDS011;4807;48.024;11.726;2023-03-12T15:56:41;1.23;;;0.13;;
9536;SDS011;4807;48.024;11.726;2023-03-12T15:59:51;1.10;;;0.70;;
9536;SDS011;4807;48.024;11.726;2023-03-12T16:03:30;0.97;;;0.30;;
9536;SDS011;4807;48.024;11.726;2023-03-12T16:06:38;1.60;;;0.70;;
9536;SDS011;4807;48.024;11.726;2023-03-12T16:09:48;0.57;;;0.43;;
9536;SDS011;4807;48.024;11.726;2023-03-12T16:12:58;0.70;;;0.70;;
9536;SDS011;4807;48.024;11.726;2023-03-12T16:16:10;0.93;;;0.70;;
9536;SDS011;4807;48.024;11.726;2023-03-12T16:19:27;1.30;;;0.83;;
9536;SDS011;4807;48.024;11.726;2023-03-12T16:22:39;0.57;;;0.40;;
9536;SDS011;4807;48.024;11.726;2023-03-12T16:25:49;1.17;;;0.60;;
9536;SDS011;4807;48.024;11.726;2023-03-12T16:29:01;0.60;;;0.60;;
9536;SDS011;4807;48.024;11.726;2023-03-12T16:32:11;0.50;;;0.40;;
9536;SDS011;4807;48.024;11.726;2023-03-12T16:35:24;0.50;;;0.50;;
9536;SDS011;4807;48.024;11.726;2023-03-12T16:38:33;2.63;;;1.13;;
9536;SDS011;4807;48.024;11.726;2023-03-12T16:41:42;3.63;;;2.20;;
9536;SDS011;4807;48.024;11.726;2023-03-12T16:44:50;5.43;;;2.97;;
9536;SDS011;4807;48.024;11.726;2023-03-12T16:47:59;1.80;;;1.23;;
9536;SDS011;4807;48.024;11.726;2023-03-12T16:51:13;0.90;;;0.70;;
9536;SDS011;4807;48.024;11.726;2023-03-12T16:54:22;1.53;;;1.10;;
9536;SDS011;4807;48.024;11.726;2023-03-12T16:57:31;2.90;;;0.97;;
9536;SDS011;4807;48.024;11.726;2023-03-12T17:00:43;1.07;;;0.50;;
9536;SDS011;4807;48.024;11.726;2023-03-12T17:03:53;2.57;;;0.60;;
9536;SDS011;4807;48.024;11.726;2023-03-12T17:07:03;2.10;;;0.90;;
9536;SDS011;4807;48.024;11.726;2023-03-12T17:10:13;0.73;;;0.60;;
9536;SDS011;4807;48.024;11.726;2023-03-12T17:13:23;1.83;;;0.80;;
9536;SDS011;4807;48.024;11.726;2023-03-12T17:16:34;1.20;;;1.10;;
9536;SDS011;4807;48.024;11.726;2023-03-12T17:19:42;3.47;;;0.87;;
9536;SDS011;4807;48.024;11.726;2023-03-12T17:22:52;0.93;;;0.70;;
9536;SDS011;4807;48.024;11.726;2023-03-12T17:26:00;4.90;;;0.70;;
9536;SDS011;4807;48.024;11.726;2023-03-12T17:29:10;2.97;;;0.90;;
9536;SDS011;4807;48.024;11.726;2023-03-12T17:32:18;1.53;;;0.67;;
9536;SDS011;4807;48.024;11.726;2023-03-12T17:35:27;2.63;;;1.37;;
9536;SDS011;4807;48.024;11.726;2023-03-12T17:38:37;8.03;;;4.27;;
9536;SDS011;4807;48.024;11.726;2023-03-12T17:41:46;3.43;;;1.40;;
9536;SDS011;4807;48.024;11.726;2023-03-12T17:44:55;3.27;;;1.13;;
9536;SDS011;4807;48.024;11.726;2023-03-12T17:48:04;2.60;;;0.67;;
9536;SDS011;4807;48.024;11.726;2023-03-12T17:51:12;2.57;;;0.93;;
9536;SDS011;4807;48.024;11.726;2023-03-12T17:54:22;5.33;;;1.17;;
9536;SDS011;4807;48.024;11.726;2023-03-12T17:57:31;3.63;;;1.30;;
9536;SDS011;4807;48.024;11.726;2023-03-12T18:00:39;3.10;;;0.83;;
9536;SDS011;4807;48.024;11.726;2023-03-12T18:03:47;2.57;;;1.10;;
9536;SDS011;4807;48.024;11.726;2023-03-12T18:06:56;3.43;;;1.40;;
9536;SDS011;4807;48.024;11.726;2023-03-12T18:10:08;4.07;;;2.00;;
9536;SDS011;4807;48.024;11.726;2023-03-12T18:13:18;4.63;;;3.10;;
9536;SDS011;4807;48.024;11.726;2023-03-12T18:16:28;2.93;;;1.63;;
9536;SDS011;4807;48.024;11.726;2023-03-12T18:19:36;1.37;;;0.90;;
9536;SDS011;4807;48.024;11.726;2023-03-12T18:22:45;0.77;;;0.60;;
9536;SDS011;4807;48.024;11.726;2023-03-12T18:25:55;2.97;;;1.00;;
9536;SDS011;4807;48.024;11.726;2023-03-12T18:29:04;3.37;;;0.63;;
9536;SDS011;4807;48.024;11.726;2023-03-12T18:32:13;3.30;;;1.47;;
9536;SDS011;4807;48.024;11.726;2023-03-12T18:35:21;3.27;;;1.10;;
9536;SDS011;4807;48.024;11.726;2023-03-12T18:38:34;5.33;;;1.20;;
9536;SDS011;4807;48.024;11.726;2023-03-12T18:41:45;3.50;;;0.73;;
9536;SDS011;4807;48.024;11.726;2023-03-12T18:44:53;2.63;;;1.00;;
9536;SDS011;4807;48.024;11.726;2023-03-12T18:48:01;1.13;;;0.80;;
9536;SDS011;4807;48.024;11.726;2023-03-12T18:51:10;3.17;;;0.80;;
9536;SDS011;4807;48.024;11.726;2023-03-12T18:54:18;2.37;;;0.70;;
9536;SDS011;4807;48.024;11.726;2023-03-12T18:57:31;3.17;;;1.10;;
9536;SDS011;4807;48.024;11.726;2023-03-12T19:00:40;4.43;;;1.70;;
9536;SDS011;4807;48.024;11.726;2023-03-12T19:03:48;5.90;;;2.57;;
9536;SDS011;4807;48.024;11.726;2023-03-12T19:06:56;3.97;;;2.10;;
9536;SDS011;4807;48.024;11.726;2023-03-12T19:10:06;3.97;;;2.43;;
9536;SDS011;4807;48.024;11.726;2023-03-12T19:13:17;2.27;;;1.20;;
9536;SDS011;4807;48.024;11.726;2023-03-12T19:16:26;1.60;;;0.80;;
9536;SDS011;4807;48.024;11.726;2023-03-12T19:19:34;4.70;;;1.20;;
9536;SDS011;4807;48.024;11.726;2023-03-12T19:22:43;3.70;;;1.20;;
9536;SDS011;4807;48.024;11.726;2023-03-12T19:25:52;1.13;;;0.70;;
9536;SDS011;4807;48.024;11.726;2023-03-12T19:29:02;1.43;;;0.70;;
9536;SDS011;4807;48.024;11.726;2023-03-12T19:32:10;1.43;;;0.83;;
9536;SDS011;4807;48.024;11.726;2023-03-12T19:35:18;1.10;;;0.90;;
9536;SDS011;4807;48.024;11.726;2023-03-12T19:38:27;1.80;;;1.70;;
9536;SDS011;4807;48.024;11.726;2023-03-12T19:41:36;1.00;;;0.90;;
9536;SDS011;4807;48.024;11.726;2023-03-12T19:44:47;1.27;;;0.70;;
9536;SDS011;4807;48.024;11.726;2023-03-12T19:47:57;0.70;;;0.60;;
9536;SDS011;4807;48.024;11.726;2023-03-12T19:51:06;1.80;;;0.70;;
9536;SDS011;4807;48.024;11.726;2023-03-12T19:54:17;0.97;;;0.90;;
9536;SDS011;4807;48.024;11.726;2023-03-12T19:57:25;2.03;;;0.80;;
9536;SDS011;4807;48.024;11.726;2023-03-12T20:00:35;1.67;;;0.80;;